createdAt,value
2022-12-29T00:00:16.908Z,0.88
2022-12-29T00:03:03.697Z,0.80
2022-12-29T00:05:57.196Z,0.65
2022-12-29T00:08:43.925Z,0.75
2022-12-29T00:11:32.155Z,0.65
2022-12-29T00:14:36.667Z,0.65
2022-12-29T00:17:23.750Z,0.60
2022-12-29T00:20:28.823Z,0.90
2022-12-29T00:23:33.371Z,0.65
2022-12-29T00:26:37.960Z,0.50
2022-12-29T00:29:43.779Z,0.60
2022-12-29T00:32:50.503Z,0.70
2022-12-29T00:35:43.697Z,0.43
2022-12-29T00:38:52.246Z,0.80
2022-12-29T00:41:56.492Z,0.60
2022-12-29T00:44:44.497Z,0.77
2022-12-29T00:47:31.334Z,0.68
2022-12-29T00:50:17.264Z,0.70
2022-12-29T00:53:05.041Z,0.80
2022-12-29T00:55:51.814Z,0.57
2022-12-29T00:58:38.535Z,0.60
2022-12-29T01:01:26.832Z,0.80
2022-12-29T01:04:13.956Z,0.75
2022-12-29T01:07:01.026Z,0.60
2022-12-29T01:10:05.492Z,0.52
2022-12-29T01:12:52.433Z,0.45
2022-12-29T01:15:39.135Z,0.70
2022-12-29T01:18:28.367Z,0.65
2022-12-29T01:21:14.941Z,0.80
2022-12-29T01:24:01.684Z,0.60
2022-12-29T01:26:48.497Z,0.57
2022-12-29T01:29:34.840Z,0.70
2022-12-29T01:32:21.283Z,0.63
2022-12-29T01:35:09.777Z,0.57
2022-12-29T01:37:56.393Z,0.60
2022-12-29T01:40:47.466Z,0.50
2022-12-29T01:43:43.708Z,0.60
2022-12-29T01:46:35.882Z,0.60
2022-12-29T01:49:30.194Z,0.60
2022-12-29T01:52:18.037Z,0.73
2022-12-29T01:55:10.424Z,0.60
2022-12-29T01:58:02.974Z,0.70
2022-12-29T02:00:50.458Z,0.52
2022-12-29T02:03:38.821Z,0.68
2022-12-29T02:06:30.521Z,0.50
2022-12-29T02:09:19.054Z,0.50
2022-12-29T02:12:06.524Z,0.50
2022-12-29T02:15:02.071Z,0.40
2022-12-29T02:18:20.380Z,0.57
2022-12-29T02:21:45.753Z,0.60
2022-12-29T02:25:24.408Z,0.50
2022-12-29T02:28:55.135Z,0.45
2022-12-29T02:31:52.080Z,0.52
2022-12-29T02:34:54.905Z,0.38
2022-12-29T02:37:55.157Z,0.60
2022-12-29T02:40:48.146Z,0.50
2022-12-29T02:43:44.139Z,0.38
2022-12-29T02:46:39.578Z,0.75
2022-12-29T02:49:38.074Z,0.57
2022-12-29T02:52:34.395Z,0.60
2022-12-29T02:55:20.035Z,0.35
2022-12-29T02:58:20.953Z,0.40
2022-12-29T03:01:31.251Z,0.55
2022-12-29T03:04:36.534Z,0.55
2022-12-29T03:07:34.323Z,0.60
2022-12-29T03:10:37.435Z,0.50
2022-12-29T03:13:50.808Z,0.50
2022-12-29T03:16:46.975Z,0.30
2022-12-29T03:19:39.760Z,0.52
2022-12-29T03:22:34.592Z,0.50
2022-12-29T03:25:27.647Z,0.50
2022-12-29T03:28:23.032Z,0.50
2022-12-29T03:31:12.418Z,0.38
2022-12-29T03:34:01.079Z,0.22
2022-12-29T03:36:55.452Z,0.60
2022-12-29T03:39:43.647Z,0.43
2022-12-29T03:42:34.632Z,0.70
2022-12-29T03:45:21.752Z,0.50
2022-12-29T03:48:08.697Z,0.43
2022-12-29T03:50:55.573Z,0.38
2022-12-29T03:53:43.375Z,0.60
2022-12-29T03:56:29.992Z,0.50
2022-12-29T03:59:17.218Z,0.65
2022-12-29T04:02:05.334Z,0.52
2022-12-29T04:04:51.884Z,0.50
2022-12-29T04:07:38.395Z,0.60
2022-12-29T04:10:26.368Z,0.50
2022-12-29T04:13:12.761Z,0.40
2022-12-29T04:15:59.360Z,0.88
2022-12-29T04:18:46.126Z,0.60
2022-12-29T04:21:32.930Z,0.60
2022-12-29T04:24:19.997Z,0.77
2022-12-29T04:27:08.391Z,0.75
2022-12-29T04:29:54.727Z,0.52
2022-12-29T04:32:41.445Z,0.63
2022-12-29T04:35:28.263Z,0.65
2022-12-29T04:38:15.425Z,0.70
2022-12-29T04:41:02.919Z,0.80
2022-12-29T04:43:50.942Z,0.70
2022-12-29T04:46:37.769Z,0.60
2022-12-29T04:49:24.572Z,0.65
2022-12-29T04:52:11.383Z,0.32
2022-12-29T04:54:58.325Z,0.50
2022-12-29T04:57:45.237Z,0.60
2022-12-29T05:00:33.335Z,0.60
2022-12-29T05:03:21.216Z,0.60
2022-12-29T05:06:08.993Z,0.60
2022-12-29T05:08:55.718Z,0.85
2022-12-29T05:11:42.565Z,0.65
2022-12-29T05:14:29.422Z,0.55
2022-12-29T05:17:17.536Z,0.52
2022-12-29T05:20:06.792Z,0.63
2022-12-29T05:22:54.080Z,0.55
2022-12-29T05:25:40.778Z,0.77
2022-12-29T05:28:27.523Z,0.50
2022-12-29T05:31:14.112Z,0.40
2022-12-29T05:34:02.209Z,0.55
2022-12-29T05:36:48.811Z,0.20
2022-12-29T05:39:35.593Z,0.45
2022-12-29T05:42:22.384Z,0.35
2022-12-29T05:45:11.085Z,0.20
2022-12-29T05:47:57.508Z,0.60
2022-12-29T05:50:49.270Z,0.15
2022-12-29T05:53:36.144Z,0.20
2022-12-29T05:56:22.651Z,0.10
2022-12-29T05:59:09.323Z,0.17
2022-12-29T06:01:55.975Z,0.30
2022-12-29T06:04:42.770Z,0.50
2022-12-29T06:07:30.631Z,0.45
2022-12-29T06:10:17.774Z,0.50
2022-12-29T06:13:06.456Z,0.60
2022-12-29T06:15:53.687Z,0.40
2022-12-29T06:18:40.406Z,0.45
2022-12-29T06:21:27.237Z,0.35
2022-12-29T06:24:15.210Z,0.60
2022-12-29T06:27:02.055Z,0.75
2022-12-29T06:29:48.846Z,0.50
2022-12-29T06:32:35.607Z,0.50
2022-12-29T06:35:23.249Z,0.50
2022-12-29T06:38:10.085Z,0.70
2022-12-29T06:40:58.142Z,0.70
2022-12-29T06:43:44.631Z,0.55
2022-12-29T06:46:31.705Z,0.50
2022-12-29T06:49:18.712Z,0.50
2022-12-29T06:52:10.808Z,0.90
2022-12-29T06:54:59.835Z,0.52
2022-12-29T06:57:47.871Z,0.52
2022-12-29T07:00:34.394Z,0.65
2022-12-29T07:03:21.299Z,0.57
2022-12-29T07:06:08.103Z,0.60
2022-12-29T07:08:56.055Z,0.98
2022-12-29T07:11:42.623Z,0.65
2022-12-29T07:14:30.707Z,0.52
2022-12-29T07:17:17.433Z,0.70
2022-12-29T07:20:04.329Z,0.60
2022-12-29T07:22:50.873Z,0.93
2022-12-29T07:25:37.641Z,0.70
2022-12-29T07:28:24.574Z,0.50
2022-12-29T07:31:17.916Z,0.63
2022-12-29T07:34:04.479Z,0.60
2022-12-29T07:36:51.104Z,0.68
2022-12-29T07:39:37.753Z,0.57
2022-12-29T07:42:24.431Z,0.65
2022-12-29T07:45:11.913Z,0.52
2022-12-29T07:48:00.071Z,0.38
2022-12-29T07:50:46.598Z,0.63
2022-12-29T07:53:33.280Z,0.80
2022-12-29T07:56:20.052Z,0.63
2022-12-29T07:59:07.001Z,0.85
2022-12-29T08:01:53.797Z,0.50
2022-12-29T08:04:41.561Z,0.65
2022-12-29T08:07:28.393Z,0.93
2022-12-29T08:10:16.938Z,0.88
2022-12-29T08:13:03.683Z,1.15
2022-12-29T08:15:50.597Z,0.70
2022-12-29T08:18:37.167Z,0.93
2022-12-29T08:21:25.288Z,1.10
2022-12-29T08:24:12.264Z,0.80
2022-12-29T08:27:01.807Z,0.73
2022-12-29T08:29:51.387Z,1.05
2022-12-29T08:32:37.978Z,0.50
2022-12-29T08:35:32.073Z,0.98
2022-12-29T08:38:20.331Z,0.57
2022-12-29T08:41:07.116Z,0.45
2022-12-29T08:43:53.954Z,0.77
2022-12-29T08:46:40.974Z,0.60
2022-12-29T08:49:27.880Z,0.75
2022-12-29T08:52:14.663Z,0.73
2022-12-29T08:55:03.209Z,0.63
2022-12-29T08:57:49.684Z,0.77
2022-12-29T09:00:36.579Z,1.20
2022-12-29T09:03:45.921Z,0.70
2022-12-29T09:06:35.102Z,0.50
2022-12-29T09:09:24.792Z,0.95
2022-12-29T09:12:12.796Z,0.65
2022-12-29T09:14:59.924Z,0.50
2022-12-29T09:17:47.009Z,0.70
2022-12-29T09:20:33.787Z,0.60
2022-12-29T09:23:20.679Z,0.77
2022-12-29T09:26:08.285Z,1.58
2022-12-29T09:28:56.256Z,0.55
2022-12-29T09:31:42.691Z,1.20
2022-12-29T09:34:29.523Z,0.95
2022-12-29T09:37:16.436Z,1.00
2022-12-29T09:40:02.983Z,0.85
2022-12-29T09:43:18.297Z,0.98
2022-12-29T09:46:25.994Z,0.90
2022-12-29T09:49:27.839Z,1.20
2022-12-29T09:52:20.222Z,0.80
2022-12-29T09:55:14.275Z,1.33
2022-12-29T09:58:06.691Z,1.10
2022-12-29T10:01:02.019Z,1.10
2022-12-29T10:03:54.104Z,0.90
2022-12-29T10:10:22.150Z,0.98
2022-12-29T10:13:32.747Z,1.00
2022-12-29T10:16:28.260Z,0.93
2022-12-29T10:19:42.657Z,1.38
2022-12-29T10:22:51.118Z,1.08
2022-12-29T10:25:42.597Z,0.77
2022-12-29T10:28:40.362Z,0.90
2022-12-29T10:31:36.771Z,0.95
2022-12-29T10:34:32.575Z,1.23
2022-12-29T10:37:34.406Z,1.05
2022-12-29T10:40:29.356Z,1.15
2022-12-29T10:43:28.075Z,1.00
2022-12-29T10:46:20.037Z,1.30
2022-12-29T10:49:08.548Z,1.20
2022-12-29T10:52:01.820Z,0.90
2022-12-29T10:54:56.354Z,0.93
2022-12-29T10:57:45.877Z,1.10
2022-12-29T11:00:34.914Z,1.20
2022-12-29T11:03:51.449Z,0.95
2022-12-29T11:06:43.351Z,0.80
2022-12-29T11:09:42.556Z,1.00
2022-12-29T11:12:32.405Z,0.80
2022-12-29T11:15:19.400Z,1.15
2022-12-29T11:18:06.186Z,1.20
2022-12-29T11:20:56.406Z,0.68
2022-12-29T11:23:43.975Z,1.20
2022-12-29T11:26:34.750Z,0.82
2022-12-29T11:29:32.009Z,1.20
2022-12-29T11:32:28.407Z,1.20
2022-12-29T11:35:35.255Z,0.60
2022-12-29T11:38:27.818Z,1.17
2022-12-29T11:41:25.783Z,0.93
2022-12-29T11:44:15.839Z,0.90
2022-12-29T11:47:02.655Z,1.05
2022-12-29T11:49:53.959Z,1.15
2022-12-29T11:52:41.302Z,1.00
2022-12-29T11:55:30.892Z,0.90
2022-12-29T11:58:18.888Z,0.70
2022-12-29T12:01:15.817Z,1.08
2022-12-29T12:04:09.738Z,1.38
2022-12-29T12:07:05.759Z,1.30
2022-12-29T12:10:06.906Z,1.17
2022-12-29T12:13:09.785Z,1.30
2022-12-29T12:16:06.180Z,0.90
2022-12-29T12:18:59.382Z,0.90
2022-12-29T12:21:52.358Z,1.00
2022-12-29T12:24:45.935Z,1.10
2022-12-29T12:27:41.558Z,1.00
2022-12-29T12:30:38.052Z,1.20
2022-12-29T12:33:33.364Z,1.20
2022-12-29T12:37:07.328Z,1.00
2022-12-29T12:40:22.653Z,0.98
2022-12-29T12:43:38.988Z,1.23
2022-12-29T12:47:01.935Z,0.73
2022-12-29T12:50:26.139Z,0.93
2022-12-29T12:53:39.678Z,0.88
2022-12-29T12:56:51.695Z,0.88
2022-12-29T12:59:57.899Z,1.33
2022-12-29T13:03:05.764Z,1.08
2022-12-29T13:06:17.865Z,1.00
2022-12-29T13:09:39.142Z,1.15
2022-12-29T13:12:39.916Z,0.77
2022-12-29T13:15:47.379Z,0.88
2022-12-29T13:18:45.453Z,0.80
2022-12-29T13:22:03.785Z,0.65
2022-12-29T13:25:15.501Z,1.15
2022-12-29T13:28:12.729Z,1.05
2022-12-29T13:31:11.437Z,0.50
2022-12-29T13:34:07.454Z,1.27
2022-12-29T13:36:58.421Z,0.90
2022-12-29T13:39:51.882Z,1.20
2022-12-29T13:42:40.357Z,0.77
2022-12-29T13:45:33.364Z,1.10
2022-12-29T13:48:30.793Z,1.00
2022-12-29T13:51:22.679Z,0.98
2022-12-29T13:54:29.779Z,1.10
2022-12-29T13:57:33.821Z,0.98
2022-12-29T14:00:25.645Z,0.70
2022-12-29T14:03:41.805Z,1.75
2022-12-29T14:06:31.058Z,1.27
2022-12-29T14:09:50.651Z,0.80
2022-12-29T14:12:43.034Z,0.93
2022-12-29T14:15:31.276Z,1.00
2022-12-29T14:18:22.242Z,0.98
2022-12-29T14:21:22.749Z,1.10
2022-12-29T14:24:47.193Z,1.08
2022-12-29T14:27:58.133Z,1.00
2022-12-29T14:30:54.879Z,0.90
2022-12-29T14:33:42.351Z,0.90
2022-12-29T14:36:37.764Z,0.88
2022-12-29T14:39:40.420Z,1.20
2022-12-29T14:42:27.445Z,1.00
2022-12-29T14:45:30.982Z,2.85
2022-12-29T14:48:43.655Z,1.20
2022-12-29T14:51:36.670Z,1.08
2022-12-29T14:54:50.187Z,1.23
2022-12-29T14:57:42.665Z,1.05
2022-12-29T15:00:34.914Z,1.33
2022-12-29T15:03:26.209Z,1.10
2022-12-29T15:06:19.827Z,1.08
2022-12-29T15:09:17.517Z,1.30
2022-12-29T15:12:17.746Z,1.20
2022-12-29T15:15:20.225Z,1.17
2022-12-29T15:18:28.057Z,1.23
2022-12-29T15:21:18.425Z,0.80
2022-12-29T15:24:05.938Z,1.02
2022-12-29T15:26:56.323Z,1.25
2022-12-29T15:29:46.079Z,1.00
2022-12-29T15:32:45.097Z,0.82
2022-12-29T15:35:37.137Z,0.82
2022-12-29T15:38:34.616Z,0.80
2022-12-29T15:41:54.508Z,1.00
2022-12-29T15:44:45.119Z,1.02
2022-12-29T15:47:33.965Z,1.00
2022-12-29T15:50:28.064Z,0.75
2022-12-29T15:53:25.494Z,1.00
2022-12-29T15:56:13.695Z,1.30
2022-12-29T15:59:02.138Z,1.80
2022-12-29T16:01:49.175Z,1.35
2022-12-29T16:04:48.716Z,1.38
2022-12-29T16:07:56.129Z,1.30
2022-12-29T16:10:45.169Z,1.20
2022-12-29T16:13:40.808Z,1.20
2022-12-29T16:16:32.694Z,0.98
2022-12-29T16:19:29.776Z,1.05
2022-12-29T16:22:28.155Z,0.73
2022-12-29T16:25:24.485Z,1.00
2022-12-29T16:28:21.941Z,1.38
2022-12-29T16:31:23.563Z,1.45
2022-12-29T16:34:26.122Z,0.98
2022-12-29T16:37:31.959Z,1.23
2022-12-29T16:40:32.220Z,1.33
2022-12-29T16:43:24.716Z,1.60
2022-12-29T16:46:32.205Z,1.00
2022-12-29T16:49:23.048Z,1.13
2022-12-29T16:52:19.558Z,1.00
2022-12-29T16:55:07.537Z,1.00
2022-12-29T16:57:57.589Z,1.55
2022-12-29T17:00:48.179Z,0.85
2022-12-29T17:03:42.234Z,1.10
2022-12-29T17:06:29.315Z,1.02
2022-12-29T17:09:22.335Z,1.50
2022-12-29T17:12:13.702Z,1.58
2022-12-29T17:15:03.486Z,1.20
2022-12-29T17:17:51.694Z,1.02
2022-12-29T17:20:39.983Z,0.90
2022-12-29T17:23:27.147Z,0.95
2022-12-29T17:26:14.980Z,1.08
2022-12-29T17:29:01.387Z,0.90
2022-12-29T17:31:48.395Z,0.90
2022-12-29T17:34:35.310Z,0.90
2022-12-29T17:37:41.463Z,0.98
2022-12-29T17:40:30.909Z,1.20
2022-12-29T17:43:18.514Z,1.10
2022-12-29T17:46:09.031Z,1.33
2022-12-29T17:48:56.260Z,1.20
2022-12-29T17:51:45.287Z,0.90
2022-12-29T17:54:33.457Z,1.00
2022-12-29T17:57:22.281Z,0.75
2022-12-29T18:00:17.050Z,1.00
2022-12-29T18:03:03.776Z,0.70
2022-12-29T18:05:50.712Z,0.63
2022-12-29T18:08:38.861Z,0.65
2022-12-29T18:11:28.300Z,0.90
2022-12-29T18:14:17.137Z,1.00
2022-12-29T18:17:13.328Z,0.60
2022-12-29T18:19:59.940Z,0.68
2022-12-29T18:22:46.922Z,1.10
2022-12-29T18:25:43.333Z,0.63
2022-12-29T18:28:32.149Z,1.08
2022-12-29T18:31:22.839Z,0.60
2022-12-29T18:34:16.214Z,0.82
2022-12-29T18:37:02.882Z,0.70
2022-12-29T18:39:49.772Z,0.90
2022-12-29T18:42:36.661Z,1.10
2022-12-29T18:45:25.824Z,0.70
2022-12-29T18:48:12.867Z,0.87
2022-12-29T18:51:00.143Z,0.80
2022-12-29T18:53:47.998Z,1.00
2022-12-29T18:56:34.789Z,1.00
2022-12-29T18:59:21.648Z,1.00
2022-12-29T19:02:18.369Z,1.10
2022-12-29T19:05:08.603Z,0.80
2022-12-29T19:07:56.314Z,0.77
2022-12-29T19:10:44.706Z,1.03
2022-12-29T19:13:34.399Z,0.90
2022-12-29T19:16:23.651Z,0.75
2022-12-29T19:19:21.821Z,0.70
2022-12-29T19:22:08.734Z,1.50
2022-12-29T19:24:59.898Z,0.93
2022-12-29T19:27:47.266Z,1.00
2022-12-29T19:30:34.980Z,1.00
2022-12-29T19:33:23.431Z,1.27
2022-12-29T19:36:16.361Z,1.20
2022-12-29T19:39:03.075Z,1.00
2022-12-29T19:41:49.826Z,0.90
2022-12-29T19:44:36.720Z,1.57
2022-12-29T19:47:27.066Z,1.00
2022-12-29T19:50:19.179Z,1.03
2022-12-29T19:53:07.525Z,1.50
2022-12-29T19:55:54.288Z,1.50
2022-12-29T19:58:46.627Z,1.30
2022-12-29T20:01:33.919Z,1.13
2022-12-29T20:04:20.655Z,1.40
2022-12-29T20:07:07.437Z,1.30
2022-12-29T20:09:55.611Z,1.97
2022-12-29T20:12:42.619Z,1.50
2022-12-29T20:15:29.192Z,1.80
2022-12-29T20:18:15.840Z,1.43
2022-12-29T20:21:04.559Z,1.40
2022-12-29T20:23:52.823Z,1.67
2022-12-29T20:26:40.930Z,1.00
2022-12-29T20:29:27.910Z,1.73
2022-12-29T20:32:17.385Z,1.47
2022-12-29T20:35:04.357Z,1.50
2022-12-29T20:37:51.254Z,1.50
2022-12-29T20:40:42.565Z,1.53
2022-12-29T20:43:34.689Z,1.60
2022-12-29T20:46:25.246Z,1.83
2022-12-29T20:49:15.226Z,1.70
2022-12-29T20:52:06.865Z,1.97
2022-12-29T20:54:54.098Z,1.73
2022-12-29T21:00:49.107Z,1.60
2022-12-29T21:03:36.527Z,1.40
2022-12-29T21:06:23.052Z,1.97
2022-12-29T21:09:11.312Z,1.77
2022-12-29T21:11:57.902Z,2.03
2022-12-29T21:14:45.992Z,1.60
2022-12-29T21:17:34.448Z,1.70
2022-12-29T21:20:21.351Z,1.67
2022-12-29T21:23:08.090Z,1.53
2022-12-29T21:25:55.102Z,1.90
2022-12-29T21:28:43.519Z,1.77
2022-12-29T21:31:33.259Z,1.53
2022-12-29T21:34:21.141Z,1.30
2022-12-29T21:37:07.913Z,1.60
2022-12-29T21:39:54.865Z,2.07
2022-12-29T21:42:41.700Z,1.87
2022-12-29T21:45:30.193Z,2.03
2022-12-29T21:48:23.949Z,1.40
2022-12-29T21:51:34.150Z,1.37
2022-12-29T21:54:41.831Z,1.30
2022-12-29T21:57:47.135Z,1.30
2022-12-29T22:00:51.808Z,1.60
2022-12-29T22:03:57.576Z,1.60
2022-12-29T22:07:03.329Z,1.70
2022-12-29T22:10:07.879Z,1.37
2022-12-29T22:13:01.166Z,1.67
2022-12-29T22:15:47.966Z,1.70
2022-12-29T22:18:35.191Z,1.53
2022-12-29T22:21:22.296Z,1.63
2022-12-29T22:24:10.579Z,1.40
2022-12-29T22:26:57.011Z,1.63
2022-12-29T22:29:43.825Z,1.70
2022-12-29T22:32:30.497Z,0.83
2022-12-29T22:35:17.821Z,1.27
2022-12-29T22:38:04.341Z,1.27
2022-12-29T22:40:52.640Z,1.20
2022-12-29T22:43:39.383Z,1.90
2022-12-29T22:46:26.287Z,2.00
2022-12-29T22:49:13.092Z,1.80
2022-12-29T22:52:00.244Z,1.43
2022-12-29T22:54:47.201Z,1.30
2022-12-29T22:57:36.045Z,1.23
2022-12-29T23:00:22.835Z,1.57
2022-12-29T23:03:09.786Z,1.40
2022-12-29T23:05:58.763Z,1.07
2022-12-29T23:08:47.371Z,1.60
2022-12-29T23:11:34.896Z,1.37
2022-12-29T23:14:23.137Z,1.70
2022-12-29T23:17:09.779Z,1.47
2022-12-29T23:19:56.687Z,1.17
2022-12-29T23:22:44.813Z,1.57
2022-12-29T23:25:31.793Z,1.30
2022-12-29T23:28:18.224Z,1.20
2022-12-29T23:31:07.042Z,1.60
2022-12-29T23:33:55.453Z,1.23
2022-12-29T23:36:42.775Z,1.43
2022-12-29T23:39:29.556Z,1.93
2022-12-29T23:42:16.318Z,1.53
2022-12-29T23:45:03.088Z,1.17
2022-12-29T23:47:51.389Z,1.93
2022-12-29T23:50:41.145Z,1.60
2022-12-29T23:53:27.720Z,1.70
2022-12-29T23:56:18.098Z,1.77
2022-12-29T23:59:06.102Z,1.60
